Terminal Aerodrome Forecast
Issued by NWS

Home | Current Version | Previous Version | Graphics & Text | Print | Product List | Glossary Off
Versions: 1 2 3 4 5 6 7 8 9 10 11 12 13 14 15 16

000
FTUS43 KMPX 192300 RRA
TAFRNH
TAF
KRNH 192339Z 2000/2024 VRB04KT P6SM SKC
     FM200600 31005KT P6SM SKC
     FM201500 34010KT P6SM SCT250=

USA.gov is the U.S. government's official web portal to all federal, state and local government web resources and services.